sensor_id;sensor_type;location;lat;lon;timestamp;P1;durP1;ratioP1;P2;durP2;ratioP2
36291;SDS011;22327;51.208;6.418;2022-11-24T00:00:06;13.77;;;2.05;;
36291;SDS011;22327;51.208;6.418;2022-11-24T00:02:32;14.00;;;2.90;;
36291;SDS011;22327;51.208;6.418;2022-11-24T00:04:57;11.65;;;2.20;;
36291;SDS011;22327;51.208;6.418;2022-11-24T00:07:23;17.35;;;2.60;;
36291;SDS011;22327;51.208;6.418;2022-11-24T00:09:48;18.30;;;2.33;;
36291;SDS011;22327;51.208;6.418;2022-11-24T00:12:14;14.40;;;2.80;;
36291;SDS011;22327;51.208;6.418;2022-11-24T00:14:40;14.68;;;2.28;;
36291;SDS011;22327;51.208;6.418;2022-11-24T00:17:05;15.05;;;2.40;;
36291;SDS011;22327;51.208;6.418;2022-11-24T00:19:31;11.45;;;1.88;;
36291;SDS011;22327;51.208;6.418;2022-11-24T00:21:56;12.85;;;2.03;;
36291;SDS011;22327;51.208;6.418;2022-11-24T00:24:22;16.15;;;2.25;;
36291;SDS011;22327;51.208;6.418;2022-11-24T00:26:47;13.63;;;3.40;;
36291;SDS011;22327;51.208;6.418;2022-11-24T00:29:13;12.60;;;1.92;;
36291;SDS011;22327;51.208;6.418;2022-11-24T00:31:39;10.18;;;1.90;;
36291;SDS011;22327;51.208;6.418;2022-11-24T00:34:08;8.93;;;2.03;;
36291;SDS011;22327;51.208;6.418;2022-11-24T00:36:36;13.63;;;2.47;;
36291;SDS011;22327;51.208;6.418;2022-11-24T00:39:03;10.80;;;2.08;;
36291;SDS011;22327;51.208;6.418;2022-11-24T00:41:30;17.38;;;2.20;;
36291;SDS011;22327;51.208;6.418;2022-11-24T00:43:57;9.98;;;2.05;;
36291;SDS011;22327;51.208;6.418;2022-11-24T00:46:23;11.75;;;1.90;;
36291;SDS011;22327;51.208;6.418;2022-11-24T00:48:49;13.90;;;2.78;;
36291;SDS011;22327;51.208;6.418;2022-11-24T00:51:15;6.65;;;1.50;;
36291;SDS011;22327;51.208;6.418;2022-11-24T00:53:42;10.65;;;1.70;;
36291;SDS011;22327;51.208;6.418;2022-11-24T00:56:08;11.57;;;1.95;;
36291;SDS011;22327;51.208;6.418;2022-11-24T00:58:34;14.98;;;2.30;;
36291;SDS011;22327;51.208;6.418;2022-11-24T01:01:04;13.13;;;1.70;;
36291;SDS011;22327;51.208;6.418;2022-11-24T01:03:35;9.52;;;2.05;;
36291;SDS011;22327;51.208;6.418;2022-11-24T01:06:04;12.73;;;2.10;;
36291;SDS011;22327;51.208;6.418;2022-11-24T01:08:32;8.38;;;1.33;;
36291;SDS011;22327;51.208;6.418;2022-11-24T01:13:32;10.63;;;2.28;;
36291;SDS011;22327;51.208;6.418;2022-11-24T01:15:58;10.18;;;2.00;;
36291;SDS011;22327;51.208;6.418;2022-11-24T01:18:24;10.45;;;1.60;;
36291;SDS011;22327;51.208;6.418;2022-11-24T01:20:49;9.52;;;1.70;;
36291;SDS011;22327;51.208;6.418;2022-11-24T01:23:15;11.73;;;2.42;;
36291;SDS011;22327;51.208;6.418;2022-11-24T01:25:40;10.20;;;2.10;;
36291;SDS011;22327;51.208;6.418;2022-11-24T01:28:06;15.02;;;2.65;;
36291;SDS011;22327;51.208;6.418;2022-11-24T01:30:31;12.68;;;2.42;;
36291;SDS011;22327;51.208;6.418;2022-11-24T01:32:57;10.05;;;2.08;;
36291;SDS011;22327;51.208;6.418;2022-11-24T01:35:22;8.43;;;1.83;;
36291;SDS011;22327;51.208;6.418;2022-11-24T01:37:48;14.00;;;2.70;;
36291;SDS011;22327;51.208;6.418;2022-11-24T01:40:14;8.13;;;2.15;;
36291;SDS011;22327;51.208;6.418;2022-11-24T01:42:46;13.80;;;2.38;;
36291;SDS011;22327;51.208;6.418;2022-11-24T01:45:33;12.75;;;2.13;;
36291;SDS011;22327;51.208;6.418;2022-11-24T01:48:04;13.25;;;3.15;;
36291;SDS011;22327;51.208;6.418;2022-11-24T01:50:36;13.20;;;2.88;;
36291;SDS011;22327;51.208;6.418;2022-11-24T01:53:02;20.05;;;3.35;;
36291;SDS011;22327;51.208;6.418;2022-11-24T01:55:30;11.90;;;2.47;;
36291;SDS011;22327;51.208;6.418;2022-11-24T01:58:00;12.95;;;2.08;;
36291;SDS011;22327;51.208;6.418;2022-11-24T02:00:36;8.85;;;1.88;;
36291;SDS011;22327;51.208;6.418;2022-11-24T02:03:03;14.35;;;2.67;;
36291;SDS011;22327;51.208;6.418;2022-11-24T02:08:02;8.50;;;2.13;;
36291;SDS011;22327;51.208;6.418;2022-11-24T02:10:30;14.05;;;2.17;;
36291;SDS011;22327;51.208;6.418;2022-11-24T02:12:57;11.60;;;1.98;;
36291;SDS011;22327;51.208;6.418;2022-11-24T02:15:24;9.93;;;1.90;;
36291;SDS011;22327;51.208;6.418;2022-11-24T02:17:50;8.77;;;1.63;;
36291;SDS011;22327;51.208;6.418;2022-11-24T02:20:16;12.38;;;2.33;;
36291;SDS011;22327;51.208;6.418;2022-11-24T02:28:12;11.98;;;2.50;;
36291;SDS011;22327;51.208;6.418;2022-11-24T02:30:41;11.32;;;2.55;;
36291;SDS011;22327;51.208;6.418;2022-11-24T02:33:08;12.07;;;2.10;;
36291;SDS011;22327;51.208;6.418;2022-11-24T02:35:35;9.10;;;2.10;;
36291;SDS011;22327;51.208;6.418;2022-11-24T02:38:00;10.70;;;1.90;;
36291;SDS011;22327;51.208;6.418;2022-11-24T02:40:26;9.98;;;2.20;;
36291;SDS011;22327;51.208;6.418;2022-11-24T02:42:55;8.77;;;2.28;;
36291;SDS011;22327;51.208;6.418;2022-11-24T02:45:25;14.27;;;2.20;;
36291;SDS011;22327;51.208;6.418;2022-11-24T02:47:52;10.57;;;2.00;;
36291;SDS011;22327;51.208;6.418;2022-11-24T02:50:18;10.82;;;3.45;;
36291;SDS011;22327;51.208;6.418;2022-11-24T02:52:43;10.95;;;2.17;;
36291;SDS011;22327;51.208;6.418;2022-11-24T02:55:09;15.77;;;2.47;;
36291;SDS011;22327;51.208;6.418;2022-11-24T02:57:35;12.25;;;2.20;;
36291;SDS011;22327;51.208;6.418;2022-11-24T03:00:00;10.60;;;2.03;;
36291;SDS011;22327;51.208;6.418;2022-11-24T03:02:26;13.23;;;2.33;;
36291;SDS011;22327;51.208;6.418;2022-11-24T03:04:51;10.38;;;2.47;;
36291;SDS011;22327;51.208;6.418;2022-11-24T03:07:17;10.57;;;2.30;;
36291;SDS011;22327;51.208;6.418;2022-11-24T03:09:43;19.27;;;2.50;;
36291;SDS011;22327;51.208;6.418;2022-11-24T03:12:08;16.25;;;2.90;;
36291;SDS011;22327;51.208;6.418;2022-11-24T03:14:34;14.02;;;2.42;;
36291;SDS011;22327;51.208;6.418;2022-11-24T03:16:59;7.82;;;2.17;;
36291;SDS011;22327;51.208;6.418;2022-11-24T03:19:25;13.30;;;2.85;;
36291;SDS011;22327;51.208;6.418;2022-11-24T03:21:51;8.85;;;1.90;;
36291;SDS011;22327;51.208;6.418;2022-11-24T03:24:16;17.88;;;3.00;;
36291;SDS011;22327;51.208;6.418;2022-11-24T03:26:42;11.68;;;2.00;;
36291;SDS011;22327;51.208;6.418;2022-11-24T03:29:07;11.27;;;2.20;;
36291;SDS011;22327;51.208;6.418;2022-11-24T03:31:33;11.65;;;2.50;;
36291;SDS011;22327;51.208;6.418;2022-11-24T03:33:59;11.93;;;2.10;;
36291;SDS011;22327;51.208;6.418;2022-11-24T03:36:25;14.43;;;2.85;;
36291;SDS011;22327;51.208;6.418;2022-11-24T03:38:50;12.32;;;2.42;;
36291;SDS011;22327;51.208;6.418;2022-11-24T03:41:16;13.77;;;2.13;;
36291;SDS011;22327;51.208;6.418;2022-11-24T03:43:42;10.50;;;2.63;;
36291;SDS011;22327;51.208;6.418;2022-11-24T03:46:08;12.80;;;1.88;;
36291;SDS011;22327;51.208;6.418;2022-11-24T03:48:33;16.25;;;3.00;;
36291;SDS011;22327;51.208;6.418;2022-11-24T03:50:59;13.60;;;2.22;;
36291;SDS011;22327;51.208;6.418;2022-11-24T03:53:28;14.68;;;2.35;;
36291;SDS011;22327;51.208;6.418;2022-11-24T03:55:55;16.52;;;3.75;;
36291;SDS011;22327;51.208;6.418;2022-11-24T03:58:20;13.10;;;1.98;;
36291;SDS011;22327;51.208;6.418;2022-11-24T04:00:47;13.38;;;2.67;;
36291;SDS011;22327;51.208;6.418;2022-11-24T04:03:13;9.82;;;2.25;;
36291;SDS011;22327;51.208;6.418;2022-11-24T04:05:39;12.82;;;3.22;;
36291;SDS011;22327;51.208;6.418;2022-11-24T04:08:04;12.52;;;3.13;;
36291;SDS011;22327;51.208;6.418;2022-11-24T04:10:31;15.60;;;3.58;;
36291;SDS011;22327;51.208;6.418;2022-11-24T04:13:01;10.93;;;2.15;;
36291;SDS011;22327;51.208;6.418;2022-11-24T04:15:29;16.08;;;3.80;;
36291;SDS011;22327;51.208;6.418;2022-11-24T04:17:55;18.35;;;2.78;;
36291;SDS011;22327;51.208;6.418;2022-11-24T04:20:21;15.43;;;2.65;;
36291;SDS011;22327;51.208;6.418;2022-11-24T04:22:48;11.70;;;2.58;;
36291;SDS011;22327;51.208;6.418;2022-11-24T04:25:15;17.92;;;2.30;;
36291;SDS011;22327;51.208;6.418;2022-11-24T04:27:41;14.30;;;2.85;;
36291;SDS011;22327;51.208;6.418;2022-11-24T04:30:07;16.10;;;2.55;;
36291;SDS011;22327;51.208;6.418;2022-11-24T04:32:33;17.30;;;2.80;;
36291;SDS011;22327;51.208;6.418;2022-11-24T04:34:59;14.73;;;2.50;;
36291;SDS011;22327;51.208;6.418;2022-11-24T04:37:24;16.92;;;2.67;;
36291;SDS011;22327;51.208;6.418;2022-11-24T04:39:50;11.80;;;3.45;;
36291;SDS011;22327;51.208;6.418;2022-11-24T04:42:15;18.35;;;2.63;;
36291;SDS011;22327;51.208;6.418;2022-11-24T04:44:41;11.93;;;1.83;;
36291;SDS011;22327;51.208;6.418;2022-11-24T04:47:06;16.98;;;2.97;;
36291;SDS011;22327;51.208;6.418;2022-11-24T04:49:36;13.93;;;2.50;;
36291;SDS011;22327;51.208;6.418;2022-11-24T04:52:02;11.85;;;2.50;;
36291;SDS011;22327;51.208;6.418;2022-11-24T04:54:27;16.27;;;2.50;;
36291;SDS011;22327;51.208;6.418;2022-11-24T04:56:53;11.88;;;3.05;;
36291;SDS011;22327;51.208;6.418;2022-11-24T04:59:18;16.25;;;2.55;;
36291;SDS011;22327;51.208;6.418;2022-11-24T05:01:44;15.13;;;2.20;;
36291;SDS011;22327;51.208;6.418;2022-11-24T05:04:11;16.25;;;2.47;;
36291;SDS011;22327;51.208;6.418;2022-11-24T05:06:38;15.05;;;2.25;;
36291;SDS011;22327;51.208;6.418;2022-11-24T05:09:04;13.55;;;2.25;;
36291;SDS011;22327;51.208;6.418;2022-11-24T05:11:30;17.52;;;2.78;;
36291;SDS011;22327;51.208;6.418;2022-11-24T05:13:56;14.93;;;2.53;;
36291;SDS011;22327;51.208;6.418;2022-11-24T05:16:22;13.20;;;2.38;;
36291;SDS011;22327;51.208;6.418;2022-11-24T05:18:47;15.95;;;3.00;;
36291;SDS011;22327;51.208;6.418;2022-11-24T05:21:13;14.90;;;2.63;;
36291;SDS011;22327;51.208;6.418;2022-11-24T05:23:38;16.83;;;2.70;;
36291;SDS011;22327;51.208;6.418;2022-11-24T05:26:04;15.82;;;2.47;;
36291;SDS011;22327;51.208;6.418;2022-11-24T05:28:30;12.60;;;2.03;;
36291;SDS011;22327;51.208;6.418;2022-11-24T05:30:59;14.45;;;2.20;;
36291;SDS011;22327;51.208;6.418;2022-11-24T05:33:26;10.90;;;2.50;;
36291;SDS011;22327;51.208;6.418;2022-11-24T05:35:52;12.68;;;2.17;;
36291;SDS011;22327;51.208;6.418;2022-11-24T05:38:19;16.80;;;2.42;;
36291;SDS011;22327;51.208;6.418;2022-11-24T05:40:46;13.48;;;2.78;;
36291;SDS011;22327;51.208;6.418;2022-11-24T05:43:13;15.15;;;2.50;;
36291;SDS011;22327;51.208;6.418;2022-11-24T05:45:40;14.10;;;2.20;;
36291;SDS011;22327;51.208;6.418;2022-11-24T05:48:06;17.35;;;2.50;;
36291;SDS011;22327;51.208;6.418;2022-11-24T05:50:34;13.85;;;2.30;;
36291;SDS011;22327;51.208;6.418;2022-11-24T05:53:01;14.48;;;2.53;;
36291;SDS011;22327;51.208;6.418;2022-11-24T05:55:28;12.07;;;2.10;;
36291;SDS011;22327;51.208;6.418;2022-11-24T05:58:00;11.07;;;2.40;;
36291;SDS011;22327;51.208;6.418;2022-11-24T06:00:28;14.55;;;2.70;;
36291;SDS011;22327;51.208;6.418;2022-11-24T06:02:58;15.45;;;2.72;;
36291;SDS011;22327;51.208;6.418;2022-11-24T06:05:24;17.25;;;3.55;;
36291;SDS011;22327;51.208;6.418;2022-11-24T06:07:51;10.15;;;2.00;;
36291;SDS011;22327;51.208;6.418;2022-11-24T06:10:17;10.95;;;2.22;;
36291;SDS011;22327;51.208;6.418;2022-11-24T06:12:44;12.48;;;2.13;;
36291;SDS011;22327;51.208;6.418;2022-11-24T06:15:10;9.48;;;1.80;;
36291;SDS011;22327;51.208;6.418;2022-11-24T06:17:36;12.38;;;1.85;;
36291;SDS011;22327;51.208;6.418;2022-11-24T06:20:02;9.23;;;2.00;;
36291;SDS011;22327;51.208;6.418;2022-11-24T06:22:29;8.13;;;1.92;;
36291;SDS011;22327;51.208;6.418;2022-11-24T06:24:54;12.43;;;1.63;;
36291;SDS011;22327;51.208;6.418;2022-11-24T06:27:20;6.70;;;1.35;;
36291;SDS011;22327;51.208;6.418;2022-11-24T06:29:45;6.72;;;1.23;;
36291;SDS011;22327;51.208;6.418;2022-11-24T06:32:11;5.55;;;1.23;;
36291;SDS011;22327;51.208;6.418;2022-11-24T06:34:37;6.40;;;1.42;;
36291;SDS011;22327;51.208;6.418;2022-11-24T06:37:02;4.28;;;0.85;;
36291;SDS011;22327;51.208;6.418;2022-11-24T06:39:28;6.28;;;1.00;;
36291;SDS011;22327;51.208;6.418;2022-11-24T06:41:53;6.15;;;1.00;;
36291;SDS011;22327;51.208;6.418;2022-11-24T06:44:19;5.07;;;1.08;;
36291;SDS011;22327;51.208;6.418;2022-11-24T06:46:44;4.88;;;1.13;;
36291;SDS011;22327;51.208;6.418;2022-11-24T06:49:10;2.95;;;0.75;;
36291;SDS011;22327;51.208;6.418;2022-11-24T06:51:35;6.40;;;1.35;;
36291;SDS011;22327;51.208;6.418;2022-11-24T06:54:01;3.35;;;0.80;;
36291;SDS011;22327;51.208;6.418;2022-11-24T06:56:30;5.15;;;0.70;;
36291;SDS011;22327;51.208;6.418;2022-11-24T06:58:56;5.57;;;0.90;;
36291;SDS011;22327;51.208;6.418;2022-11-24T07:01:22;3.00;;;0.70;;
36291;SDS011;22327;51.208;6.418;2022-11-24T07:03:50;4.93;;;0.77;;
36291;SDS011;22327;51.208;6.418;2022-11-24T07:06:16;2.05;;;0.57;;
36291;SDS011;22327;51.208;6.418;2022-11-24T07:08:43;3.40;;;0.50;;
36291;SDS011;22327;51.208;6.418;2022-11-24T07:11:10;1.83;;;0.77;;
36291;SDS011;22327;51.208;6.418;2022-11-24T07:13:39;2.70;;;0.60;;
36291;SDS011;22327;51.208;6.418;2022-11-24T07:16:09;3.40;;;0.50;;
36291;SDS011;22327;51.208;6.418;2022-11-24T07:18:55;2.42;;;0.40;;
36291;SDS011;22327;51.208;6.418;2022-11-24T07:21:22;2.92;;;0.70;;
36291;SDS011;22327;51.208;6.418;2022-11-24T07:23:49;4.10;;;0.63;;
36291;SDS011;22327;51.208;6.418;2022-11-24T07:26:16;2.45;;;0.70;;
36291;SDS011;22327;51.208;6.418;2022-11-24T07:28:42;1.73;;;0.43;;
36291;SDS011;22327;51.208;6.418;2022-11-24T07:31:09;2.17;;;0.45;;
36291;SDS011;22327;51.208;6.418;2022-11-24T07:33:36;1.42;;;0.70;;
36291;SDS011;22327;51.208;6.418;2022-11-24T07:36:02;2.65;;;0.60;;
36291;SDS011;22327;51.208;6.418;2022-11-24T07:38:29;2.85;;;0.70;;
36291;SDS011;22327;51.208;6.418;2022-11-24T07:41:07;3.78;;;0.60;;
36291;SDS011;22327;51.208;6.418;2022-11-24T07:43:35;3.00;;;0.70;;
36291;SDS011;22327;51.208;6.418;2022-11-24T07:46:01;2.53;;;0.77;;
36291;SDS011;22327;51.208;6.418;2022-11-24T07:48:27;3.22;;;0.50;;
36291;SDS011;22327;51.208;6.418;2022-11-24T07:50:53;2.83;;;0.90;;
36291;SDS011;22327;51.208;6.418;2022-11-24T07:53:18;2.45;;;0.82;;
36291;SDS011;22327;51.208;6.418;2022-11-24T07:55:51;2.17;;;1.05;;
36291;SDS011;22327;51.208;6.418;2022-11-24T07:58:21;3.30;;;0.77;;
36291;SDS011;22327;51.208;6.418;2022-11-24T08:00:47;3.10;;;0.75;;
36291;SDS011;22327;51.208;6.418;2022-11-24T08:03:12;4.05;;;1.95;;
36291;SDS011;22327;51.208;6.418;2022-11-24T08:05:38;3.03;;;0.82;;
36291;SDS011;22327;51.208;6.418;2022-11-24T08:08:04;2.60;;;0.63;;
36291;SDS011;22327;51.208;6.418;2022-11-24T08:10:29;4.10;;;0.90;;
36291;SDS011;22327;51.208;6.418;2022-11-24T08:12:58;4.18;;;0.88;;
36291;SDS011;22327;51.208;6.418;2022-11-24T08:15:25;4.38;;;0.77;;
36291;SDS011;22327;51.208;6.418;2022-11-24T08:17:50;2.80;;;0.85;;
36291;SDS011;22327;51.208;6.418;2022-11-24T08:20:16;4.63;;;0.90;;
36291;SDS011;22327;51.208;6.418;2022-11-24T08:22:42;3.35;;;0.80;;
36291;SDS011;22327;51.208;6.418;2022-11-24T08:25:07;3.03;;;1.13;;
36291;SDS011;22327;51.208;6.418;2022-11-24T08:27:33;4.85;;;1.10;;
36291;SDS011;22327;51.208;6.418;2022-11-24T08:29:58;5.93;;;1.30;;
36291;SDS011;22327;51.208;6.418;2022-11-24T08:32:24;7.20;;;1.30;;
36291;SDS011;22327;51.208;6.418;2022-11-24T08:34:50;8.43;;;1.42;;
36291;SDS011;22327;51.208;6.418;2022-11-24T08:37:16;5.32;;;1.23;;
36291;SDS011;22327;51.208;6.418;2022-11-24T08:39:41;6.10;;;1.50;;
36291;SDS011;22327;51.208;6.418;2022-11-24T08:42:07;6.20;;;1.30;;
36291;SDS011;22327;51.208;6.418;2022-11-24T08:44:32;3.75;;;1.10;;
36291;SDS011;22327;51.208;6.418;2022-11-24T08:46:58;3.42;;;0.98;;
36291;SDS011;22327;51.208;6.418;2022-11-24T08:49:23;5.22;;;1.00;;
36291;SDS011;22327;51.208;6.418;2022-11-24T08:51:49;6.97;;;1.50;;
36291;SDS011;22327;51.208;6.418;2022-11-24T08:54:15;4.55;;;1.10;;
36291;SDS011;22327;51.208;6.418;2022-11-24T08:56:42;7.65;;;2.10;;
36291;SDS011;22327;51.208;6.418;2022-11-24T08:59:10;5.75;;;1.38;;
36291;SDS011;22327;51.208;6.418;2022-11-24T09:01:37;7.82;;;1.30;;
36291;SDS011;22327;51.208;6.418;2022-11-24T09:04:03;6.30;;;1.30;;
36291;SDS011;22327;51.208;6.418;2022-11-24T09:06:29;4.15;;;1.05;;
36291;SDS011;22327;51.208;6.418;2022-11-24T09:08:55;7.95;;;1.48;;
36291;SDS011;22327;51.208;6.418;2022-11-24T09:11:23;5.45;;;1.20;;
36291;SDS011;22327;51.208;6.418;2022-11-24T09:13:49;6.25;;;1.20;;
36291;SDS011;22327;51.208;6.418;2022-11-24T09:16:16;5.95;;;1.13;;
36291;SDS011;22327;51.208;6.418;2022-11-24T09:18:43;4.80;;;1.23;;
36291;SDS011;22327;51.208;6.418;2022-11-24T09:21:11;4.90;;;1.17;;
36291;SDS011;22327;51.208;6.418;2022-11-24T09:23:38;4.50;;;1.08;;
36291;SDS011;22327;51.208;6.418;2022-11-24T09:26:05;8.93;;;1.50;;
36291;SDS011;22327;51.208;6.418;2022-11-24T09:28:32;4.90;;;0.93;;
36291;SDS011;22327;51.208;6.418;2022-11-24T09:31:07;7.07;;;1.35;;
36291;SDS011;22327;51.208;6.418;2022-11-24T09:33:34;8.75;;;1.48;;
36291;SDS011;22327;51.208;6.418;2022-11-24T09:36:00;7.90;;;1.55;;
36291;SDS011;22327;51.208;6.418;2022-11-24T09:38:26;3.78;;;1.30;;
36291;SDS011;22327;51.208;6.418;2022-11-24T09:40:52;4.15;;;1.13;;
36291;SDS011;22327;51.208;6.418;2022-11-24T09:46:32;6.72;;;1.42;;
36291;SDS011;22327;51.208;6.418;2022-11-24T09:49:08;4.75;;;1.67;;
36291;SDS011;22327;51.208;6.418;2022-11-24T09:51:39;5.75;;;1.02;;
36291;SDS011;22327;51.208;6.418;2022-11-24T09:54:11;7.90;;;1.35;;
36291;SDS011;22327;51.208;6.418;2022-11-24T09:56:42;8.55;;;1.33;;
36291;SDS011;22327;51.208;6.418;2022-11-24T09:59:21;5.13;;;1.33;;
36291;SDS011;22327;51.208;6.418;2022-11-24T10:01:48;7.13;;;1.52;;
36291;SDS011;22327;51.208;6.418;2022-11-24T10:04:32;7.28;;;1.40;;
36291;SDS011;22327;51.208;6.418;2022-11-24T10:07:05;8.02;;;1.38;;
36291;SDS011;22327;51.208;6.418;2022-11-24T10:12:22;7.93;;;1.95;;
36291;SDS011;22327;51.208;6.418;2022-11-24T10:14:57;7.72;;;1.45;;
36291;SDS011;22327;51.208;6.418;2022-11-24T10:20:21;11.05;;;1.48;;
36291;SDS011;22327;51.208;6.418;2022-11-24T10:23:17;5.60;;;1.17;;
36291;SDS011;22327;51.208;6.418;2022-11-24T10:28:19;8.18;;;1.42;;
36291;SDS011;22327;51.208;6.418;2022-11-24T10:30:44;8.82;;;1.85;;
36291;SDS011;22327;51.208;6.418;2022-11-24T10:33:20;5.95;;;1.15;;
36291;SDS011;22327;51.208;6.418;2022-11-24T10:35:51;8.80;;;1.60;;
36291;SDS011;22327;51.208;6.418;2022-11-24T10:40:49;9.80;;;1.58;;
36291;SDS011;22327;51.208;6.418;2022-11-24T10:43:18;4.45;;;1.40;;
36291;SDS011;22327;51.208;6.418;2022-11-24T10:45:44;6.20;;;1.90;;
36291;SDS011;22327;51.208;6.418;2022-11-24T10:48:12;7.55;;;1.20;;
36291;SDS011;22327;51.208;6.418;2022-11-24T10:50:48;7.82;;;1.63;;
36291;SDS011;22327;51.208;6.418;2022-11-24T10:53:26;8.60;;;1.65;;
36291;SDS011;22327;51.208;6.418;2022-11-24T10:58:23;7.65;;;1.35;;
36291;SDS011;22327;51.208;6.418;2022-11-24T11:00:57;8.43;;;1.30;;
36291;SDS011;22327;51.208;6.418;2022-11-24T11:03:25;7.07;;;1.10;;
36291;SDS011;22327;51.208;6.418;2022-11-24T11:08:33;8.15;;;2.42;;
36291;SDS011;22327;51.208;6.418;2022-11-24T11:14:00;12.43;;;2.45;;
36291;SDS011;22327;51.208;6.418;2022-11-24T11:16:34;4.22;;;1.33;;
36291;SDS011;22327;51.208;6.418;2022-11-24T11:19:10;7.95;;;1.85;;
36291;SDS011;22327;51.208;6.418;2022-11-24T11:22:00;6.38;;;1.58;;
36291;SDS011;22327;51.208;6.418;2022-11-24T11:24:35;5.53;;;1.10;;
36291;SDS011;22327;51.208;6.418;2022-11-24T11:27:24;7.43;;;1.38;;
36291;SDS011;22327;51.208;6.418;2022-11-24T11:29:49;8.40;;;1.42;;
36291;SDS011;22327;51.208;6.418;2022-11-24T11:32:16;11.00;;;1.58;;
36291;SDS011;22327;51.208;6.418;2022-11-24T11:34:46;10.73;;;1.52;;
36291;SDS011;22327;51.208;6.418;2022-11-24T11:37:13;7.95;;;1.70;;
36291;SDS011;22327;51.208;6.418;2022-11-24T11:39:40;6.03;;;1.25;;
36291;SDS011;22327;51.208;6.418;2022-11-24T11:45:13;6.55;;;1.60;;
36291;SDS011;22327;51.208;6.418;2022-11-24T11:47:47;9.50;;;1.42;;
36291;SDS011;22327;51.208;6.418;2022-11-24T11:53:42;8.43;;;1.50;;
36291;SDS011;22327;51.208;6.418;2022-11-24T11:56:20;8.15;;;1.42;;
36291;SDS011;22327;51.208;6.418;2022-11-24T12:01:40;8.77;;;1.30;;
36291;SDS011;22327;51.208;6.418;2022-11-24T12:04:19;7.85;;;1.80;;
36291;SDS011;22327;51.208;6.418;2022-11-24T12:15:45;6.45;;;1.40;;
36291;SDS011;22327;51.208;6.418;2022-11-24T12:21:24;6.00;;;1.85;;
36291;SDS011;22327;51.208;6.418;2022-11-24T12:32:27;7.60;;;1.50;;
36291;SDS011;22327;51.208;6.418;2022-11-24T12:35:20;10.45;;;2.03;;
36291;SDS011;22327;51.208;6.418;2022-11-24T12:37:54;8.05;;;1.70;;
36291;SDS011;22327;51.208;6.418;2022-11-24T12:40:45;8.63;;;1.70;;
36291;SDS011;22327;51.208;6.418;2022-11-24T12:43:40;9.90;;;2.45;;
36291;SDS011;22327;51.208;6.418;2022-11-24T12:46:41;7.25;;;1.55;;
36291;SDS011;22327;51.208;6.418;2022-11-24T12:49:23;9.48;;;1.50;;
36291;SDS011;22327;51.208;6.418;2022-11-24T12:51:53;10.45;;;2.05;;
36291;SDS011;22327;51.208;6.418;2022-11-24T12:54:23;8.80;;;2.30;;
36291;SDS011;22327;51.208;6.418;2022-11-24T12:57:00;6.93;;;1.40;;
36291;SDS011;22327;51.208;6.418;2022-11-24T12:59:55;8.38;;;1.50;;
36291;SDS011;22327;51.208;6.418;2022-11-24T13:07:58;6.95;;;1.48;;
36291;SDS011;22327;51.208;6.418;2022-11-24T13:10:28;6.88;;;1.60;;
36291;SDS011;22327;51.208;6.418;2022-11-24T13:12:59;7.72;;;1.60;;
36291;SDS011;22327;51.208;6.418;2022-11-24T13:15:27;8.77;;;1.58;;
36291;SDS011;22327;51.208;6.418;2022-11-24T13:17:53;10.65;;;2.03;;
36291;SDS011;22327;51.208;6.418;2022-11-24T13:22:49;10.18;;;1.40;;
36291;SDS011;22327;51.208;6.418;2022-11-24T13:27:46;9.98;;;1.80;;
36291;SDS011;22327;51.208;6.418;2022-11-24T13:35:35;7.95;;;1.52;;
36291;SDS011;22327;51.208;6.418;2022-11-24T13:38:00;10.90;;;1.60;;
36291;SDS011;22327;51.208;6.418;2022-11-24T13:53:30;11.10;;;1.52;;
36291;SDS011;22327;51.208;6.418;2022-11-24T13:58:36;10.13;;;1.73;;
36291;SDS011;22327;51.208;6.418;2022-11-24T14:01:04;11.80;;;2.53;;
36291;SDS011;22327;51.208;6.418;2022-11-24T14:03:41;10.35;;;1.98;;
36291;SDS011;22327;51.208;6.418;2022-11-24T14:06:20;10.75;;;2.47;;
36291;SDS011;22327;51.208;6.418;2022-11-24T14:08:54;9.85;;;2.42;;
36291;SDS011;22327;51.208;6.418;2022-11-24T14:11:20;14.85;;;2.72;;
36291;SDS011;22327;51.208;6.418;2022-11-24T14:13:46;8.73;;;3.30;;
36291;SDS011;22327;51.208;6.418;2022-11-24T14:16:13;14.35;;;3.90;;
36291;SDS011;22327;51.208;6.418;2022-11-24T14:18:41;11.75;;;3.03;;
36291;SDS011;22327;51.208;6.418;2022-11-24T14:21:22;10.73;;;1.48;;
36291;SDS011;22327;51.208;6.418;2022-11-24T14:23:55;5.72;;;1.30;;
36291;SDS011;22327;51.208;6.418;2022-11-24T14:26:40;13.77;;;1.90;;
36291;SDS011;22327;51.208;6.418;2022-11-24T14:29:13;10.57;;;1.73;;
36291;SDS011;22327;51.208;6.418;2022-11-24T14:31:54;16.67;;;3.45;;
36291;SDS011;22327;51.208;6.418;2022-11-24T14:34:21;9.68;;;1.67;;
36291;SDS011;22327;51.208;6.418;2022-11-24T14:36:49;12.15;;;2.28;;
36291;SDS011;22327;51.208;6.418;2022-11-24T14:39:16;11.35;;;1.98;;
36291;SDS011;22327;51.208;6.418;2022-11-24T14:42:18;8.80;;;2.72;;
36291;SDS011;22327;51.208;6.418;2022-11-24T14:49:52;9.60;;;2.08;;
36291;SDS011;22327;51.208;6.418;2022-11-24T14:52:18;8.90;;;1.70;;
36291;SDS011;22327;51.208;6.418;2022-11-24T14:54:47;10.63;;;2.90;;
36291;SDS011;22327;51.208;6.418;2022-11-24T15:02:41;8.80;;;1.38;;
36291;SDS011;22327;51.208;6.418;2022-11-24T15:05:16;13.75;;;2.13;;
36291;SDS011;22327;51.208;6.418;2022-11-24T15:07:44;10.85;;;1.92;;
36291;SDS011;22327;51.208;6.418;2022-11-24T15:10:22;6.43;;;1.92;;
36291;SDS011;22327;51.208;6.418;2022-11-24T15:13:02;10.65;;;2.25;;
36291;SDS011;22327;51.208;6.418;2022-11-24T15:15:32;8.93;;;1.80;;
36291;SDS011;22327;51.208;6.418;2022-11-24T15:18:00;12.02;;;1.80;;
36291;SDS011;22327;51.208;6.418;2022-11-24T15:25:54;9.95;;;2.00;;
36291;SDS011;22327;51.208;6.418;2022-11-24T15:28:21;7.40;;;2.00;;
36291;SDS011;22327;51.208;6.418;2022-11-24T15:30:53;7.20;;;1.63;;
36291;SDS011;22327;51.208;6.418;2022-11-24T15:33:20;7.13;;;2.00;;
36291;SDS011;22327;51.208;6.418;2022-11-24T15:35:47;18.88;;;3.63;;
36291;SDS011;22327;51.208;6.418;2022-11-24T15:38:13;6.60;;;2.00;;
36291;SDS011;22327;51.208;6.418;2022-11-24T15:40:39;16.60;;;2.78;;
36291;SDS011;22327;51.208;6.418;2022-11-24T15:45:55;7.68;;;1.77;;
36291;SDS011;22327;51.208;6.418;2022-11-24T15:48:21;14.90;;;3.20;;
36291;SDS011;22327;51.208;6.418;2022-11-24T15:50:47;10.00;;;2.03;;
36291;SDS011;22327;51.208;6.418;2022-11-24T15:53:15;9.45;;;2.00;;
36291;SDS011;22327;51.208;6.418;2022-11-24T15:58:14;7.35;;;2.03;;
36291;SDS011;22327;51.208;6.418;2022-11-24T16:00:40;12.35;;;3.15;;
36291;SDS011;22327;51.208;6.418;2022-11-24T16:03:07;7.88;;;1.90;;
36291;SDS011;22327;51.208;6.418;2022-11-24T16:05:32;16.05;;;2.47;;
36291;SDS011;22327;51.208;6.418;2022-11-24T16:07:58;13.10;;;2.60;;
36291;SDS011;22327;51.208;6.418;2022-11-24T16:10:34;10.30;;;1.80;;
36291;SDS011;22327;51.208;6.418;2022-11-24T16:13:00;9.32;;;2.33;;
36291;SDS011;22327;51.208;6.418;2022-11-24T16:15:25;10.40;;;3.03;;
36291;SDS011;22327;51.208;6.418;2022-11-24T16:17:51;11.32;;;2.55;;
36291;SDS011;22327;51.208;6.418;2022-11-24T16:20:17;11.60;;;3.08;;
36291;SDS011;22327;51.208;6.418;2022-11-24T16:22:43;11.13;;;2.42;;
36291;SDS011;22327;51.208;6.418;2022-11-24T16:25:09;11.98;;;2.80;;
36291;SDS011;22327;51.208;6.418;2022-11-24T16:27:34;11.27;;;2.60;;
36291;SDS011;22327;51.208;6.418;2022-11-24T16:30:00;11.13;;;2.70;;
36291;SDS011;22327;51.208;6.418;2022-11-24T16:32:26;8.27;;;2.13;;
36291;SDS011;22327;51.208;6.418;2022-11-24T16:34:51;13.60;;;2.40;;
36291;SDS011;22327;51.208;6.418;2022-11-24T16:37:17;13.45;;;2.65;;
36291;SDS011;22327;51.208;6.418;2022-11-24T16:39:44;11.05;;;2.42;;
36291;SDS011;22327;51.208;6.418;2022-11-24T16:42:10;11.05;;;2.63;;